createdAt,value
2023-01-26T00:01:29.224Z,-0.90
2023-01-26T00:03:56.705Z,-0.93
2023-01-26T00:06:23.915Z,-0.95
2023-01-26T00:08:53.134Z,-0.97
2023-01-26T00:11:26.682Z,-0.94
2023-01-26T00:13:53.952Z,-0.92
2023-01-26T00:16:20.651Z,-0.87
2023-01-26T00:18:47.177Z,-0.97
2023-01-26T00:21:20.797Z,-0.94
2023-01-26T00:23:48.584Z,-0.86
2023-01-26T00:26:18.705Z,-0.84
2023-01-26T00:28:45.168Z,-0.73
2023-01-26T00:31:18.755Z,-0.71
2023-01-26T00:33:45.786Z,-0.78
2023-01-26T00:36:12.698Z,-0.81
2023-01-26T00:38:40.163Z,-0.76
2023-01-26T00:41:06.648Z,-0.75
2023-01-26T00:43:33.729Z,-0.70
2023-01-26T00:46:00.148Z,-0.80
2023-01-26T00:48:26.554Z,-0.75
2023-01-26T00:50:53.453Z,-0.69
2023-01-26T00:53:20.132Z,-0.62
2023-01-26T00:55:46.595Z,-0.55
2023-01-26T00:58:13.103Z,-0.65
2023-01-26T01:00:39.994Z,-0.64
2023-01-26T01:03:07.392Z,-0.58
2023-01-26T01:05:34.369Z,-0.52
2023-01-26T01:08:01.524Z,-0.49
2023-01-26T01:10:28.241Z,-0.57
2023-01-26T01:12:54.941Z,-0.57
2023-01-26T01:15:21.423Z,-0.57
2023-01-26T01:17:48.259Z,-0.50
2023-01-26T01:20:14.943Z,-0.50
2023-01-26T01:22:41.387Z,-0.47
2023-01-26T01:25:08.194Z,-0.52
2023-01-26T01:27:34.629Z,-0.52
2023-01-26T01:30:01.671Z,-0.50
2023-01-26T01:32:28.138Z,-0.46
2023-01-26T01:34:54.611Z,-0.51
2023-01-26T01:37:21.047Z,-0.52
2023-01-26T01:39:49.060Z,-0.50
2023-01-26T01:42:15.631Z,-0.44
2023-01-26T01:44:43.125Z,-0.46
2023-01-26T01:47:18.271Z,-0.46
2023-01-26T01:49:49.332Z,-0.45
2023-01-26T01:52:29.804Z,-0.45
2023-01-26T01:55:08.533Z,-0.44
2023-01-26T01:57:47.610Z,-0.45
2023-01-26T02:00:20.155Z,-0.46
2023-01-26T02:03:11.020Z,-0.42
2023-01-26T02:05:45.937Z,-0.44
2023-01-26T02:08:15.912Z,-0.48
2023-01-26T02:10:46.668Z,-0.43
2023-01-26T02:13:13.783Z,-0.41
2023-01-26T02:15:40.258Z,-0.45
2023-01-26T02:18:06.736Z,-0.40
2023-01-26T02:20:46.837Z,-0.35
2023-01-26T02:23:43.500Z,-0.44
2023-01-26T02:26:24.948Z,-0.50
2023-01-26T02:28:51.990Z,-0.54
2023-01-26T02:31:19.368Z,-0.58
2023-01-26T02:33:46.100Z,-0.66
2023-01-26T02:36:30.432Z,-0.69
2023-01-26T02:39:12.127Z,-0.75
2023-01-26T02:41:58.688Z,-0.65
2023-01-26T02:44:26.273Z,-0.54
2023-01-26T02:46:53.379Z,-0.70
2023-01-26T02:49:38.500Z,-0.62
2023-01-26T02:52:05.793Z,-0.67
2023-01-26T02:54:50.854Z,-0.72
2023-01-26T02:57:17.262Z,-0.71
2023-01-26T02:59:43.696Z,-0.71
2023-01-26T03:02:10.561Z,-0.67
2023-01-26T03:04:37.001Z,-0.68
2023-01-26T03:07:03.431Z,-0.66
2023-01-26T03:09:29.932Z,-0.65
2023-01-26T03:11:56.341Z,-0.67
2023-01-26T03:14:22.771Z,-0.65
2023-01-26T03:16:49.221Z,-0.61
2023-01-26T03:19:34.784Z,-0.60
2023-01-26T03:22:20.147Z,-0.69
2023-01-26T03:25:04.948Z,-0.61
2023-01-26T03:27:38.650Z,-0.69
2023-01-26T03:30:05.542Z,-0.67
2023-01-26T03:32:31.960Z,-0.65
2023-01-26T03:34:58.428Z,-0.74
2023-01-26T03:37:24.869Z,-0.68
2023-01-26T03:40:10.862Z,-0.68
2023-01-26T03:42:56.459Z,-0.65
2023-01-26T03:45:41.246Z,-0.64
2023-01-26T03:48:30.756Z,-0.73
2023-01-26T03:51:16.151Z,-0.70
2023-01-26T03:54:01.839Z,-0.70
2023-01-26T03:56:32.468Z,-0.79
2023-01-26T03:59:11.098Z,-0.71
2023-01-26T04:02:04.896Z,-0.60
2023-01-26T04:04:50.047Z,-0.68
2023-01-26T04:07:35.346Z,-0.66
2023-01-26T04:10:01.904Z,-0.71
2023-01-26T04:12:28.317Z,-0.63
2023-01-26T04:15:13.516Z,-0.60
2023-01-26T04:17:58.358Z,-0.64
2023-01-26T04:20:43.225Z,-0.71
2023-01-26T04:23:20.697Z,-0.70
2023-01-26T04:25:48.279Z,-0.72
2023-01-26T04:28:14.858Z,-0.80
2023-01-26T04:30:41.335Z,-0.81
2023-01-26T04:33:07.817Z,-0.72
2023-01-26T04:35:34.295Z,-0.66
2023-01-26T04:38:00.782Z,-0.62
2023-01-26T04:40:27.200Z,-0.58
2023-01-26T04:42:53.574Z,-0.56
2023-01-26T04:45:19.974Z,-0.54
2023-01-26T04:47:46.458Z,-0.55
2023-01-26T04:50:13.291Z,-0.59
2023-01-26T04:52:39.899Z,-0.58
2023-01-26T04:55:06.502Z,-0.57
2023-01-26T04:57:32.937Z,-0.52
2023-01-26T04:59:59.378Z,-0.48
2023-01-26T05:02:25.810Z,-0.45
2023-01-26T05:04:52.277Z,-0.43
2023-01-26T05:07:18.707Z,-0.45
2023-01-26T05:09:45.157Z,-0.46
2023-01-26T05:12:30.221Z,-0.50
2023-01-26T05:14:56.643Z,-0.49
2023-01-26T05:17:23.096Z,-0.47
2023-01-26T05:19:49.524Z,-0.44
2023-01-26T05:22:16.042Z,-0.43
2023-01-26T05:24:42.455Z,-0.47
2023-01-26T05:27:21.066Z,-0.58
2023-01-26T05:29:48.856Z,-0.52
2023-01-26T05:32:15.367Z,-0.51
2023-01-26T05:34:41.812Z,-0.49
2023-01-26T05:37:08.277Z,-0.52
2023-01-26T05:39:34.761Z,-0.55
2023-01-26T05:42:01.221Z,-0.57
2023-01-26T05:44:29.211Z,-0.60
2023-01-26T05:46:55.730Z,-0.63
2023-01-26T05:49:22.167Z,-0.58
2023-01-26T05:51:48.646Z,-0.61
2023-01-26T05:54:15.070Z,-0.62
2023-01-26T05:56:41.529Z,-0.57
2023-01-26T05:59:08.074Z,-0.58
2023-01-26T06:01:34.479Z,-0.57
2023-01-26T06:04:00.998Z,-0.56
2023-01-26T06:06:27.527Z,-0.50
2023-01-26T06:08:53.994Z,-0.50
2023-01-26T06:11:20.450Z,-0.51
2023-01-26T06:13:48.639Z,-0.51
2023-01-26T06:16:15.325Z,-0.47
2023-01-26T06:18:41.876Z,-0.44
2023-01-26T06:21:08.347Z,-0.48
2023-01-26T06:23:34.779Z,-0.44
2023-01-26T06:26:02.153Z,-0.47
2023-01-26T06:28:30.424Z,-0.53
2023-01-26T06:31:01.453Z,-0.49
2023-01-26T06:33:28.087Z,-0.51
2023-01-26T06:35:55.866Z,-0.49
2023-01-26T06:38:22.351Z,-0.45
2023-01-26T06:40:48.806Z,-0.44
2023-01-26T06:43:15.256Z,-0.41
2023-01-26T06:45:42.591Z,-0.34
2023-01-26T06:48:09.047Z,-0.33
2023-01-26T06:50:35.946Z,-0.35
2023-01-26T06:53:23.551Z,-0.42
2023-01-26T06:55:51.494Z,-0.44
2023-01-26T06:58:18.084Z,-0.44
2023-01-26T07:00:45.020Z,-0.43
2023-01-26T07:03:11.779Z,-0.42
2023-01-26T07:05:38.217Z,-0.44
2023-01-26T07:08:06.514Z,-0.45
2023-01-26T07:10:33.012Z,-0.45
2023-01-26T07:12:59.501Z,-0.45
2023-01-26T07:15:26.064Z,-0.44
2023-01-26T07:17:52.597Z,-0.42
2023-01-26T07:20:19.134Z,-0.46
2023-01-26T07:22:45.657Z,-0.43
2023-01-26T07:25:12.154Z,-0.43
2023-01-26T07:27:38.549Z,-0.41
2023-01-26T07:30:05.591Z,-0.39
2023-01-26T07:32:32.073Z,-0.36
2023-01-26T07:34:58.573Z,-0.32
2023-01-26T07:37:30.683Z,-0.33
2023-01-26T07:39:57.088Z,-0.30
2023-01-26T07:42:23.534Z,-0.31
2023-01-26T07:44:49.969Z,-0.29
2023-01-26T07:47:16.465Z,-0.30
2023-01-26T07:49:42.872Z,-0.32
2023-01-26T07:52:09.267Z,-0.34
2023-01-26T07:54:35.689Z,-0.38
2023-01-26T07:57:02.115Z,-0.43
2023-01-26T07:59:28.556Z,-0.41
2023-01-26T08:01:55.025Z,-0.38
2023-01-26T08:04:21.474Z,-0.34
2023-01-26T08:06:47.883Z,-0.30
2023-01-26T08:09:14.490Z,-0.30
2023-01-26T08:11:40.944Z,-0.32
2023-01-26T08:14:07.392Z,-0.26
2023-01-26T08:16:33.908Z,-0.27
2023-01-26T08:19:00.566Z,-0.26
2023-01-26T08:21:27.065Z,-0.26
2023-01-26T08:23:53.595Z,-0.23
2023-01-26T08:26:20.511Z,-0.21
2023-01-26T08:28:48.049Z,-0.21
2023-01-26T08:31:21.059Z,-0.21
2023-01-26T08:33:50.810Z,-0.19
2023-01-26T08:36:21.132Z,-0.23
2023-01-26T08:38:48.978Z,-0.17
2023-01-26T08:41:15.467Z,-0.22
2023-01-26T08:43:42.061Z,-0.24
2023-01-26T08:46:09.218Z,-0.20
2023-01-26T08:48:35.889Z,-0.21
2023-01-26T08:51:04.090Z,-0.19
2023-01-26T08:53:32.419Z,-0.18
2023-01-26T08:56:01.944Z,-0.20
2023-01-26T08:58:29.504Z,-0.14
2023-01-26T09:00:56.047Z,-0.18
2023-01-26T09:03:22.552Z,-0.15
2023-01-26T09:05:49.079Z,-0.12
2023-01-26T09:08:15.564Z,-0.05
2023-01-26T09:10:45.132Z,-0.12
2023-01-26T09:13:11.632Z,-0.08
2023-01-26T09:15:38.833Z,-0.04
2023-01-26T09:18:05.365Z,-0.04
2023-01-26T09:20:31.953Z,-0.09
2023-01-26T09:22:58.421Z,-0.10
2023-01-26T09:25:24.859Z,-0.05
2023-01-26T09:27:51.330Z,-0.02
2023-01-26T09:30:17.810Z,0.00
2023-01-26T09:32:44.311Z,0.01
2023-01-26T09:35:14.271Z,0.01
2023-01-26T09:37:42.772Z,0.01
2023-01-26T09:40:35.571Z,0.03
2023-01-26T09:43:21.392Z,0.07
2023-01-26T09:46:22.018Z,0.12
2023-01-26T09:49:07.023Z,0.11
2023-01-26T09:51:36.457Z,0.09
2023-01-26T09:54:34.957Z,0.12
2023-01-26T09:57:03.341Z,0.16
2023-01-26T09:59:36.668Z,0.10
2023-01-26T10:02:40.603Z,0.06
2023-01-26T10:05:20.391Z,0.10
2023-01-26T10:07:46.914Z,0.13
2023-01-26T10:10:23.770Z,0.10
2023-01-26T10:12:51.664Z,0.11
2023-01-26T10:15:21.193Z,0.15
2023-01-26T10:17:48.666Z,0.16
2023-01-26T10:20:15.076Z,0.19
2023-01-26T10:22:52.387Z,0.17
2023-01-26T10:25:26.613Z,0.14
2023-01-26T10:27:53.311Z,0.17
2023-01-26T10:30:21.329Z,0.17
2023-01-26T10:32:52.054Z,0.16
2023-01-26T10:35:24.139Z,0.15
2023-01-26T10:37:54.480Z,0.21
2023-01-26T10:40:21.633Z,0.22
2023-01-26T10:42:59.494Z,0.22
2023-01-26T10:45:32.750Z,0.24
2023-01-26T10:48:06.737Z,0.28
2023-01-26T10:50:33.306Z,0.26
2023-01-26T10:53:05.106Z,0.26
2023-01-26T10:55:33.913Z,0.20
2023-01-26T10:58:01.154Z,0.21
2023-01-26T11:00:36.380Z,0.25
2023-01-26T11:03:17.874Z,0.27
2023-01-26T11:05:47.950Z,0.34
2023-01-26T11:08:40.740Z,0.29
2023-01-26T11:11:23.320Z,0.31
2023-01-26T11:14:13.813Z,0.34
2023-01-26T11:16:45.410Z,0.37
2023-01-26T11:19:50.515Z,0.40
2023-01-26T11:22:23.793Z,0.36
2023-01-26T11:25:05.236Z,0.35
2023-01-26T11:27:38.669Z,0.35
2023-01-26T11:30:39.208Z,0.37
2023-01-26T11:33:05.583Z,0.34
2023-01-26T11:35:35.034Z,0.35
2023-01-26T11:38:23.213Z,0.34
2023-01-26T11:41:20.944Z,0.36
2023-01-26T11:44:22.953Z,0.41
2023-01-26T11:47:18.253Z,0.39
2023-01-26T11:50:00.481Z,0.39
2023-01-26T11:52:36.901Z,0.37
2023-01-26T11:55:40.606Z,0.39
2023-01-26T11:58:32.024Z,0.42
2023-01-26T12:01:16.578Z,0.47
2023-01-26T12:03:47.697Z,0.50
2023-01-26T12:06:20.217Z,0.54
2023-01-26T12:09:03.046Z,0.45
2023-01-26T12:11:59.137Z,0.47
2023-01-26T12:14:54.206Z,0.45
2023-01-26T12:17:48.148Z,0.45
2023-01-26T12:20:23.652Z,0.47
2023-01-26T12:23:14.175Z,0.48
2023-01-26T12:25:45.309Z,0.52
2023-01-26T12:28:18.321Z,0.61
2023-01-26T12:31:15.723Z,0.65
2023-01-26T12:33:42.849Z,0.59
2023-01-26T12:36:38.645Z,0.58
2023-01-26T12:39:28.482Z,0.57
2023-01-26T12:42:29.866Z,0.56
2023-01-26T12:45:01.821Z,0.61
2023-01-26T12:47:37.205Z,0.65
2023-01-26T12:50:12.502Z,0.70
2023-01-26T12:53:05.932Z,0.70
2023-01-26T12:55:40.271Z,0.77
2023-01-26T12:58:17.261Z,0.81
2023-01-26T13:01:01.402Z,0.78
2023-01-26T13:03:33.729Z,0.77
2023-01-26T13:06:16.992Z,0.78
2023-01-26T13:09:00.579Z,0.78
2023-01-26T13:11:39.185Z,0.78
2023-01-26T13:14:31.358Z,0.81
2023-01-26T13:17:19.038Z,0.83
2023-01-26T13:19:45.471Z,0.81
2023-01-26T13:22:24.057Z,0.81
2023-01-26T13:24:56.669Z,0.83
2023-01-26T13:27:46.490Z,0.86
2023-01-26T13:30:21.978Z,0.84
2023-01-26T13:32:48.348Z,0.87
2023-01-26T13:35:18.536Z,0.88
2023-01-26T13:38:03.272Z,0.87
2023-01-26T13:40:46.217Z,0.88
2023-01-26T13:43:26.255Z,0.87
2023-01-26T13:46:07.906Z,0.85
2023-01-26T13:48:50.021Z,0.88
2023-01-26T13:51:35.516Z,0.84
2023-01-26T13:54:17.283Z,0.85
2023-01-26T13:57:00.554Z,0.83
2023-01-26T13:59:27.180Z,0.84
2023-01-26T14:01:56.090Z,0.86
2023-01-26T14:04:28.029Z,0.89
2023-01-26T14:06:59.310Z,0.90
2023-01-26T14:09:28.143Z,0.91
2023-01-26T14:12:04.005Z,0.95
2023-01-26T14:14:33.791Z,0.96
2023-01-26T14:17:01.554Z,1.00
2023-01-26T14:19:29.462Z,1.02
2023-01-26T14:22:00.903Z,1.01
2023-01-26T14:24:39.572Z,1.03
2023-01-26T14:27:22.444Z,1.05
2023-01-26T14:29:49.028Z,1.06
2023-01-26T14:32:16.949Z,1.09
2023-01-26T14:34:55.952Z,1.08
2023-01-26T14:37:24.230Z,1.09
2023-01-26T14:40:20.464Z,1.11
2023-01-26T14:42:52.439Z,1.10
2023-01-26T14:45:29.086Z,1.11
2023-01-26T14:47:58.173Z,1.13
2023-01-26T14:50:29.679Z,1.14
2023-01-26T14:52:56.666Z,1.13
2023-01-26T14:55:28.683Z,1.13
2023-01-26T14:57:56.975Z,1.13
2023-01-26T15:00:30.818Z,1.11
2023-01-26T15:03:00.348Z,1.11
2023-01-26T15:05:38.146Z,1.14
2023-01-26T15:08:17.721Z,1.15
2023-01-26T15:10:50.214Z,1.17
2023-01-26T15:13:16.620Z,1.19
2023-01-26T15:15:48.983Z,1.20
2023-01-26T15:18:21.904Z,1.21
2023-01-26T15:21:12.037Z,1.24
2023-01-26T15:23:43.272Z,1.27
2023-01-26T15:26:32.592Z,1.27
2023-01-26T15:29:02.412Z,1.29
2023-01-26T15:31:41.540Z,1.34
2023-01-26T15:34:38.872Z,1.36
2023-01-26T15:37:44.106Z,1.38
2023-01-26T15:40:12.454Z,1.42
2023-01-26T15:42:41.044Z,1.44
2023-01-26T15:45:25.809Z,1.44
2023-01-26T15:47:52.270Z,1.45
2023-01-26T15:50:27.885Z,1.46
2023-01-26T15:52:54.895Z,1.46
2023-01-26T15:55:26.116Z,1.46
2023-01-26T15:57:52.584Z,1.46
2023-01-26T16:00:19.347Z,1.51
2023-01-26T16:02:45.740Z,1.50
2023-01-26T16:05:22.478Z,1.49
2023-01-26T16:07:49.064Z,1.52
2023-01-26T16:10:18.023Z,1.53
2023-01-26T16:12:45.803Z,1.55
2023-01-26T16:15:39.480Z,1.56
2023-01-26T16:18:06.003Z,1.55
2023-01-26T16:20:33.941Z,1.54
2023-01-26T16:23:00.762Z,1.54
2023-01-26T16:25:29.543Z,1.55
2023-01-26T16:27:57.742Z,1.55
2023-01-26T16:30:25.436Z,1.53
2023-01-26T16:32:51.968Z,1.57
2023-01-26T16:35:21.608Z,1.56
2023-01-26T16:37:48.414Z,1.58
2023-01-26T16:40:17.809Z,1.59
2023-01-26T16:42:47.968Z,1.59
2023-01-26T16:45:19.770Z,1.60
2023-01-26T16:47:50.614Z,1.63
2023-01-26T16:50:17.049Z,1.65
2023-01-26T16:52:43.492Z,1.66
2023-01-26T16:55:13.802Z,1.66
2023-01-26T16:57:42.714Z,1.66
2023-01-26T17:00:20.393Z,1.72
2023-01-26T17:02:50.709Z,1.76
2023-01-26T17:05:19.906Z,1.75
2023-01-26T17:07:46.714Z,1.74
2023-01-26T17:10:15.523Z,1.76
2023-01-26T17:12:42.162Z,1.76
2023-01-26T17:15:11.504Z,1.75
2023-01-26T17:17:38.304Z,1.81
2023-01-26T17:20:18.009Z,1.82
2023-01-26T17:22:45.437Z,1.84
2023-01-26T17:25:14.550Z,1.81
2023-01-26T17:27:43.391Z,1.82
2023-01-26T17:30:10.459Z,1.81
2023-01-26T17:32:36.883Z,1.83
2023-01-26T17:35:03.765Z,1.82
2023-01-26T17:37:31.486Z,1.82
2023-01-26T17:39:58.036Z,1.84
2023-01-26T17:42:25.627Z,1.88
2023-01-26T17:44:52.196Z,1.85
2023-01-26T17:47:18.644Z,1.83
2023-01-26T17:49:45.058Z,1.84
2023-01-26T17:52:14.270Z,1.86
2023-01-26T17:54:41.294Z,1.85
2023-01-26T17:57:08.295Z,1.87
2023-01-26T17:59:34.713Z,1.87
2023-01-26T18:02:01.256Z,1.88
2023-01-26T18:04:28.799Z,1.88
2023-01-26T18:06:56.996Z,1.88
2023-01-26T18:09:23.518Z,1.89
2023-01-26T18:11:49.968Z,1.87
2023-01-26T18:14:16.386Z,1.89
2023-01-26T18:16:42.874Z,1.88
2023-01-26T18:19:09.525Z,1.89
2023-01-26T18:21:36.899Z,1.89
2023-01-26T18:24:05.504Z,1.94
2023-01-26T18:26:37.056Z,1.97
2023-01-26T18:29:05.575Z,1.99
2023-01-26T18:31:37.934Z,1.96
2023-01-26T18:34:04.617Z,1.97
2023-01-26T18:36:31.217Z,1.96
2023-01-26T18:39:01.103Z,1.97
2023-01-26T18:41:30.593Z,2.03
2023-01-26T18:43:58.440Z,2.03
2023-01-26T18:46:26.921Z,2.06
2023-01-26T18:48:55.217Z,2.04
2023-01-26T18:51:22.670Z,2.05
2023-01-26T18:53:49.625Z,2.05
2023-01-26T18:56:17.484Z,2.04
2023-01-26T18:58:44.389Z,2.04
2023-01-26T19:01:13.817Z,2.06
2023-01-26T19:03:41.795Z,2.08
2023-01-26T19:06:09.171Z,2.11
2023-01-26T19:08:35.687Z,2.15
2023-01-26T19:11:09.129Z,2.15
2023-01-26T19:13:36.018Z,2.14
2023-01-26T19:16:02.666Z,2.12
2023-01-26T19:18:29.390Z,2.11
2023-01-26T19:21:00.930Z,2.10
2023-01-26T19:23:27.619Z,2.10
2023-01-26T19:25:54.435Z,2.10
2023-01-26T19:28:21.117Z,2.18
2023-01-26T19:30:47.696Z,2.18
2023-01-26T19:33:28.170Z,2.24
2023-01-26T19:35:56.343Z,2.23
2023-01-26T19:38:23.908Z,2.22
2023-01-26T19:40:51.831Z,2.26
2023-01-26T19:43:19.382Z,2.26
2023-01-26T19:45:52.988Z,2.23
2023-01-26T19:48:21.493Z,2.24
2023-01-26T19:51:04.327Z,2.22
2023-01-26T19:53:36.035Z,2.22
2023-01-26T19:56:16.849Z,2.20
2023-01-26T19:58:44.158Z,2.21
2023-01-26T20:01:12.501Z,2.21
2023-01-26T20:03:39.213Z,2.22
2023-01-26T20:06:13.084Z,2.23
2023-01-26T20:08:39.595Z,2.24
2023-01-26T20:11:08.338Z,2.23
2023-01-26T20:13:35.562Z,2.23
2023-01-26T20:16:03.878Z,2.23
2023-01-26T20:18:30.364Z,2.24
2023-01-26T20:20:58.864Z,2.28
2023-01-26T20:23:27.461Z,2.24
2023-01-26T20:26:10.958Z,2.20
2023-01-26T20:28:40.069Z,2.19
2023-01-26T20:31:16.751Z,2.20
2023-01-26T20:33:45.230Z,2.19
2023-01-26T20:36:14.287Z,2.20
2023-01-26T20:38:40.743Z,2.20
2023-01-26T20:41:13.952Z,2.22
2023-01-26T20:43:46.479Z,2.23
2023-01-26T20:46:24.401Z,2.21
2023-01-26T20:48:51.799Z,2.21
2023-01-26T20:51:20.922Z,2.20
2023-01-26T20:53:49.218Z,2.20
2023-01-26T20:56:16.553Z,2.20
2023-01-26T20:58:43.935Z,2.19
2023-01-26T21:01:14.267Z,2.18
2023-01-26T21:03:41.453Z,2.19
2023-01-26T21:06:09.677Z,2.19
2023-01-26T21:08:36.866Z,2.18
2023-01-26T21:11:13.129Z,2.18
2023-01-26T21:13:43.580Z,2.19
2023-01-26T21:16:13.837Z,2.19
2023-01-26T21:18:40.484Z,2.17
2023-01-26T21:21:10.360Z,2.18
2023-01-26T21:23:36.864Z,2.18
2023-01-26T21:26:06.124Z,2.21
2023-01-26T21:28:33.453Z,2.25
2023-01-26T21:31:09.001Z,2.25
2023-01-26T21:33:41.140Z,2.23
2023-01-26T21:36:09.233Z,2.25
2023-01-26T21:38:38.373Z,2.23
2023-01-26T21:41:29.278Z,2.26
2023-01-26T21:44:04.221Z,2.24
2023-01-26T21:46:30.867Z,2.22
2023-01-26T21:48:57.576Z,2.22
2023-01-26T21:51:43.473Z,2.21
2023-01-26T21:54:10.068Z,2.22
2023-01-26T21:56:36.610Z,2.22
2023-01-26T21:59:10.095Z,2.22
2023-01-26T22:01:39.353Z,2.22
2023-01-26T22:04:08.833Z,2.24
2023-01-26T22:06:37.020Z,2.32
2023-01-26T22:09:05.231Z,2.35
2023-01-26T22:11:31.813Z,2.47
2023-01-26T22:13:58.531Z,2.49
2023-01-26T22:16:25.945Z,2.48
2023-01-26T22:18:52.549Z,2.50
2023-01-26T22:21:19.451Z,2.47
2023-01-26T22:23:46.985Z,2.43
2023-01-26T22:26:16.991Z,2.40
2023-01-26T22:28:50.189Z,2.39
2023-01-26T22:31:19.772Z,2.46
2023-01-26T22:33:47.437Z,2.48
2023-01-26T22:36:14.267Z,2.51
2023-01-26T22:38:41.608Z,2.47
2023-01-26T22:41:08.362Z,2.42
2023-01-26T22:43:34.831Z,2.40
2023-01-26T22:46:06.938Z,2.39
2023-01-26T22:48:34.173Z,2.49
2023-01-26T22:51:11.948Z,2.49
2023-01-26T22:53:38.667Z,2.52
2023-01-26T22:56:06.412Z,2.55
2023-01-26T22:58:39.627Z,2.55
2023-01-26T23:01:14.336Z,2.56
2023-01-26T23:03:42.103Z,2.54
2023-01-26T23:06:12.681Z,2.59
2023-01-26T23:08:39.674Z,2.55
2023-01-26T23:11:11.986Z,2.51
2023-01-26T23:13:40.910Z,2.54
2023-01-26T23:16:09.393Z,2.54
2023-01-26T23:18:36.326Z,2.61
2023-01-26T23:21:03.448Z,2.59
2023-01-26T23:23:30.271Z,2.53
2023-01-26T23:25:58.019Z,2.58
2023-01-26T23:28:42.063Z,2.55
2023-01-26T23:31:09.884Z,2.61
2023-01-26T23:33:37.659Z,2.61
2023-01-26T23:36:05.540Z,2.59
2023-01-26T23:38:32.631Z,2.62
2023-01-26T23:41:00.476Z,2.63
2023-01-26T23:43:27.979Z,2.63
2023-01-26T23:45:56.459Z,2.65
2023-01-26T23:48:24.807Z,2.63
2023-01-26T23:51:02.996Z,2.59
2023-01-26T23:53:30.749Z,2.61
2023-01-26T23:55:59.224Z,2.60
2023-01-26T23:58:25.675Z,2.57
